Time;durP1;ratioP1;P1;durP2;ratioP2;P2;SDS_P1;SDS_P2;PMS_P1;PMS_P2;Temp;Humidity;BMP_temperature;BMP_pressure;BME280_temperature;BME280_humidity;BME280_pressure;Samples;Min_cycle;Max_cycle;Signal;HPM_P1;HPM_P2
2024/03/26 00:02:07;;;;;;;;;;;3.60;99.90;;;;;;5061740;28;19981;-63
2024/03/26 00:04:33;;;;;;;;;;;3.50;99.90;;;;;;5078727;28;20015;-62
2024/03/26 00:06:58;;;;;;;;;;;3.50;99.90;;;;;;5082347;28;19925;-62
2024/03/26 00:09:24;;;;;;;;;;;3.40;99.90;;;;;;5079753;28;20007;-63
2024/03/26 00:11:50;;;;;;;;;;;3.40;99.90;;;;;;5076298;28;19925;-63
2024/03/26 00:14:16;;;;;;;;;;;3.40;99.90;;;;;;5080986;28;19950;-63
2024/03/26 00:16:42;;;;;;;;;;;3.30;99.90;;;;;;5078940;28;19936;-62
2024/03/26 00:19:08;;;;;;;;;;;3.30;99.90;;;;;;5079672;28;19928;-63
2024/03/26 00:21:35;;;;;;;;;;;3.20;99.90;;;;;;5082052;28;19925;-62
2024/03/26 00:24:00;;;;;;;;;;;3.20;99.90;;;;;;5081190;28;19935;-62
2024/03/26 00:26:26;;;;;;;;;;;3.20;99.90;;;;;;5079679;28;19924;-62
2024/03/26 00:28:52;;;;;;;;;;;3.10;99.90;;;;;;5081102;28;19947;-63
2024/03/26 00:31:18;;;;;;;;;;;3.10;99.90;;;;;;5054805;28;19925;-62
2024/03/26 00:33:44;;;;;;;;;;;3.00;99.90;;;;;;5061104;28;20230;-62
2024/03/26 00:36:11;;;;;;;;;;;3.00;99.90;;;;;;5077943;28;19928;-63
2024/03/26 00:38:37;;;;;;;;;;;2.90;99.90;;;;;;5073560;28;19950;-62
2024/03/26 00:41:03;;;;;;;;;;;2.90;99.90;;;;;;5078180;28;19928;-62
2024/03/26 00:43:29;;;;;;;;;;;2.90;99.90;;;;;;5079203;28;20407;-62
2024/03/26 00:45:55;;;;;;;;;;;2.80;99.90;;;;;;5065627;28;19931;-62
2024/03/26 00:48:21;;;;;;;;;;;2.70;99.90;;;;;;5081388;28;20285;-63
2024/03/26 00:50:47;;;;;;;;;;;2.70;99.90;;;;;;5062300;28;20308;-62
2024/03/26 00:53:13;;;;;;;;;;;2.60;99.90;;;;;;5082074;28;19932;-63
2024/03/26 00:55:39;;;;;;;;;;;2.60;99.90;;;;;;5081871;28;19925;-63
2024/03/26 00:58:04;;;;;;;;;;;2.60;99.90;;;;;;5078030;28;19924;-63
2024/03/26 01:00:30;;;;;;;;;;;2.50;99.90;;;;;;5064829;28;19928;-62
2024/03/26 01:02:56;;;;;;;;;;;2.50;99.90;;;;;;5079115;28;19924;-62
2024/03/26 01:05:22;;;;;;;;;;;2.40;99.90;;;;;;5076758;28;20400;-62
2024/03/26 01:07:48;;;;;;;;;;;2.40;99.90;;;;;;5064212;28;19928;-62
2024/03/26 01:10:14;;;;;;;;;;;2.40;99.90;;;;;;5080226;28;20067;-62
2024/03/26 01:12:39;;;;;;;;;;;2.40;99.90;;;;;;5062091;28;19928;-62
2024/03/26 01:15:06;;;;;;;;;;;2.30;99.90;;;;;;5081228;28;19981;-62
2024/03/26 01:17:32;;;;;;;;;;;2.30;99.90;;;;;;5067303;28;19963;-62
2024/03/26 01:19:58;;;;;;;;;;;2.30;99.90;;;;;;5064594;28;19924;-63
2024/03/26 01:22:24;;;;;;;;;;;2.20;99.90;;;;;;5073070;28;19924;-63
2024/03/26 01:24:49;;;;;;;;;;;2.20;99.90;;;;;;5082902;28;19936;-62
2024/03/26 01:27:15;;;;;;;;;;;2.10;99.90;;;;;;5062660;28;19932;-62
2024/03/26 01:29:41;;;;;;;;;;;2.10;99.90;;;;;;5074658;28;19935;-62
2024/03/26 01:32:08;;;;;;;;;;;2.10;99.90;;;;;;5081845;28;20061;-62
2024/03/26 01:34:34;;;;;;;;;;;2.00;99.90;;;;;;5077768;28;19924;-62
2024/03/26 01:36:59;;;;;;;;;;;2.00;99.90;;;;;;5061706;28;19972;-62
2024/03/26 01:39:25;;;;;;;;;;;2.00;99.90;;;;;;5081082;28;19931;-62
2024/03/26 01:41:51;;;;;;;;;;;2.00;99.90;;;;;;5079391;28;19981;-62
2024/03/26 01:44:17;;;;;;;;;;;2.00;99.90;;;;;;5078910;28;20350;-63
2024/03/26 01:46:43;;;;;;;;;;;2.00;99.90;;;;;;5062067;28;19929;-62
2024/03/26 01:49:09;;;;;;;;;;;2.00;99.90;;;;;;5063480;28;19965;-62
2024/03/26 01:51:35;;;;;;;;;;;2.00;99.90;;;;;;5077051;28;19924;-62
2024/03/26 01:54:03;;;;;;;;;;;2.00;99.90;;;;;;5074707;28;19935;-62
2024/03/26 01:56:29;;;;;;;;;;;2.00;99.90;;;;;;5080938;28;19931;-62
2024/03/26 01:58:54;;;;;;;;;;;2.00;99.90;;;;;;5075755;28;19928;-63
2024/03/26 02:01:21;;;;;;;;;;;1.90;99.90;;;;;;5063035;28;19924;-62
2024/03/26 02:03:47;;;;;;;;;;;1.90;99.90;;;;;;5078297;28;19929;-62
2024/03/26 02:06:13;;;;;;;;;;;1.80;99.90;;;;;;5077378;28;19924;-62
2024/03/26 02:08:39;;;;;;;;;;;1.80;99.90;;;;;;5061636;28;19932;-62
2024/03/26 02:11:05;;;;;;;;;;;1.80;99.90;;;;;;5079616;28;19924;-63
2024/03/26 02:13:31;;;;;;;;;;;1.80;99.90;;;;;;5062689;28;19998;-62
2024/03/26 02:15:57;;;;;;;;;;;1.80;99.90;;;;;;5076586;28;19924;-62
2024/03/26 02:18:22;;;;;;;;;;;1.80;99.90;;;;;;5079340;28;19928;-63
2024/03/26 02:20:48;;;;;;;;;;;1.80;99.90;;;;;;5060281;28;20351;-63
2024/03/26 02:23:19;;;;;;;;;;;1.80;99.90;;;;;;5057992;28;19982;-62
2024/03/26 02:25:45;;;;;;;;;;;1.70;99.90;;;;;;5078846;28;19931;-62
2024/03/26 02:28:11;;;;;;;;;;;1.70;99.90;;;;;;5060984;28;19968;-62
2024/03/26 02:30:37;;;;;;;;;;;1.70;99.90;;;;;;5075274;28;19930;-62
2024/03/26 02:33:03;;;;;;;;;;;1.60;99.90;;;;;;5081019;28;20339;-62
2024/03/26 02:35:29;;;;;;;;;;;1.60;99.90;;;;;;5079571;28;19924;-62
2024/03/26 02:37:55;;;;;;;;;;;1.60;99.90;;;;;;5079232;28;19931;-62
2024/03/26 02:40:21;;;;;;;;;;;1.50;99.90;;;;;;5076152;28;19936;-62
2024/03/26 02:42:47;;;;;;;;;;;1.60;99.90;;;;;;5063480;28;19932;-63
2024/03/26 02:45:13;;;;;;;;;;;1.60;99.90;;;;;;5078084;28;20407;-63
2024/03/26 02:47:39;;;;;;;;;;;1.50;99.90;;;;;;5072678;28;19928;-63
2024/03/26 02:50:05;;;;;;;;;;;1.50;99.90;;;;;;5062197;28;19971;-63
2024/03/26 02:52:31;;;;;;;;;;;1.40;99.90;;;;;;5070932;28;20419;-62
2024/03/26 02:54:57;;;;;;;;;;;1.40;99.90;;;;;;5077060;28;19925;-62
2024/03/26 02:57:23;;;;;;;;;;;1.40;99.90;;;;;;5080053;28;19928;-62
2024/03/26 02:59:48;;;;;;;;;;;1.30;99.90;;;;;;5059806;28;19977;-63
2024/03/26 03:02:15;;;;;;;;;;;1.30;99.90;;;;;;5079775;28;19974;-62
2024/03/26 03:04:40;;;;;;;;;;;1.30;99.90;;;;;;5078017;28;20376;-62
2024/03/26 03:07:06;;;;;;;;;;;1.30;99.90;;;;;;5079423;28;19924;-62
2024/03/26 03:09:32;;;;;;;;;;;1.30;99.90;;;;;;5076579;28;19925;-63
2024/03/26 03:11:58;;;;;;;;;;;1.20;99.90;;;;;;5063135;28;19925;-62
2024/03/26 03:14:24;;;;;;;;;;;1.30;99.90;;;;;;5079839;28;20375;-62
2024/03/26 03:16:50;;;;;;;;;;;1.30;99.90;;;;;;5074099;28;20439;-62
2024/03/26 03:19:16;;;;;;;;;;;1.30;99.90;;;;;;5077510;28;19936;-63
2024/03/26 03:21:42;;;;;;;;;;;1.30;99.90;;;;;;5069617;28;19928;-62
2024/03/26 03:24:07;;;;;;;;;;;1.30;99.90;;;;;;5076850;28;20014;-62
2024/03/26 03:26:33;;;;;;;;;;;1.30;99.90;;;;;;5077004;28;19931;-62
2024/03/26 03:28:59;;;;;;;;;;;1.30;99.90;;;;;;5079983;28;19957;-63
2024/03/26 03:31:25;;;;;;;;;;;1.30;99.90;;;;;;5078780;28;19967;-63
2024/03/26 03:33:51;;;;;;;;;;;1.30;99.90;;;;;;5060382;28;19936;-63
2024/03/26 03:36:17;;;;;;;;;;;1.30;99.90;;;;;;5077754;28;19928;-62
2024/03/26 03:38:43;;;;;;;;;;;1.30;99.90;;;;;;5077231;28;19974;-62
2024/03/26 03:41:09;;;;;;;;;;;1.20;99.90;;;;;;5073429;28;19925;-62
2024/03/26 03:43:34;;;;;;;;;;;1.20;99.90;;;;;;5077977;28;19928;-63
2024/03/26 03:46:00;;;;;;;;;;;1.10;99.90;;;;;;5076710;28;20400;-62
2024/03/26 03:48:26;;;;;;;;;;;0.90;99.90;;;;;;5074902;28;19924;-62
2024/03/26 03:50:52;;;;;;;;;;;0.90;99.90;;;;;;5079425;28;19934;-62
2024/03/26 03:53:18;;;;;;;;;;;0.90;99.90;;;;;;5078140;28;19982;-62
2024/03/26 03:55:44;;;;;;;;;;;0.90;99.90;;;;;;5061243;28;19925;-63
2024/03/26 03:58:10;;;;;;;;;;;1.00;99.90;;;;;;5076597;28;20392;-63
2024/03/26 04:00:36;;;;;;;;;;;0.90;99.90;;;;;;5067647;28;19932;-63
2024/03/26 04:03:02;;;;;;;;;;;0.90;99.90;;;;;;5076687;28;19986;-62
2024/03/26 04:05:28;;;;;;;;;;;0.90;99.90;;;;;;5073064;28;19932;-62
2024/03/26 04:07:54;;;;;;;;;;;0.90;99.90;;;;;;5081098;28;19931;-62
2024/03/26 04:10:19;;;;;;;;;;;0.80;99.90;;;;;;5076019;28;19925;-62
2024/03/26 04:12:45;;;;;;;;;;;0.90;99.90;;;;;;5074123;28;19925;-62
2024/03/26 04:15:11;;;;;;;;;;;0.90;99.90;;;;;;5080410;28;20288;-62
2024/03/26 04:17:37;;;;;;;;;;;0.90;99.90;;;;;;5075280;28;19929;-62
2024/03/26 04:20:04;;;;;;;;;;;0.90;99.90;;;;;;5078657;28;19927;-62
2024/03/26 04:22:31;;;;;;;;;;;0.80;99.90;;;;;;5077420;28;19950;-62
2024/03/26 04:24:57;;;;;;;;;;;0.80;99.90;;;;;;5062547;28;19924;-62
2024/03/26 04:27:22;;;;;;;;;;;0.80;99.90;;;;;;5059642;28;20597;-62
2024/03/26 04:29:48;;;;;;;;;;;0.80;99.90;;;;;;5074522;28;19925;-62
2024/03/26 04:32:14;;;;;;;;;;;0.80;99.90;;;;;;5080080;28;19925;-62
2024/03/26 04:34:40;;;;;;;;;;;0.70;99.90;;;;;;5074679;28;19933;-62
2024/03/26 04:37:06;;;;;;;;;;;0.70;99.90;;;;;;5072757;28;20323;-62
2024/03/26 04:39:32;;;;;;;;;;;0.60;99.90;;;;;;5079010;28;19928;-62
2024/03/26 04:41:57;;;;;;;;;;;0.60;99.90;;;;;;5059972;28;19978;-62
2024/03/26 04:44:23;;;;;;;;;;;0.60;99.90;;;;;;5080079;28;19928;-62
2024/03/26 04:46:49;;;;;;;;;;;0.60;99.90;;;;;;5076814;28;19925;-62
2024/03/26 04:49:15;;;;;;;;;;;0.60;99.90;;;;;;5079419;28;20479;-63
2024/03/26 04:51:41;;;;;;;;;;;0.60;99.90;;;;;;5077438;28;19928;-62
2024/03/26 04:54:06;;;;;;;;;;;0.60;99.90;;;;;;5084235;28;19935;-62
2024/03/26 04:56:32;;;;;;;;;;;0.60;99.90;;;;;;5081817;28;19932;-63
2024/03/26 04:58:58;;;;;;;;;;;0.50;99.90;;;;;;5077956;28;19929;-63
2024/03/26 05:01:24;;;;;;;;;;;0.60;99.90;;;;;;5078102;28;19940;-62
2024/03/26 05:03:50;;;;;;;;;;;0.50;99.90;;;;;;5078742;28;19924;-62
2024/03/26 05:06:16;;;;;;;;;;;0.60;99.90;;;;;;5079926;28;19997;-62
2024/03/26 05:08:42;;;;;;;;;;;0.60;99.90;;;;;;5080838;28;19934;-62
2024/03/26 05:11:08;;;;;;;;;;;0.50;99.90;;;;;;5080874;28;20309;-62
2024/03/26 05:13:34;;;;;;;;;;;0.60;99.90;;;;;;5063678;28;19963;-62
2024/03/26 05:16:00;;;;;;;;;;;0.60;99.90;;;;;;5079731;28;20367;-65
2024/03/26 05:18:26;;;;;;;;;;;0.60;99.90;;;;;;5055496;28;19924;-63
2024/03/26 05:20:52;;;;;;;;;;;0.60;99.90;;;;;;5071156;28;19924;-63
2024/03/26 05:23:18;;;;;;;;;;;0.60;99.90;;;;;;5077499;28;19925;-62
2024/03/26 05:25:44;;;;;;;;;;;0.60;99.90;;;;;;5066973;28;19928;-63
2024/03/26 05:28:10;;;;;;;;;;;0.60;99.90;;;;;;5079912;28;20419;-62
2024/03/26 05:30:38;;;;;;;;;;;0.70;99.90;;;;;;5078571;28;19925;-63
2024/03/26 05:33:04;;;;;;;;;;;0.60;99.90;;;;;;5085646;28;19929;-62
2024/03/26 05:35:30;;;;;;;;;;;0.60;99.90;;;;;;5061781;28;19939;-63
2024/03/26 05:37:58;;;;;;;;;;;0.60;99.90;;;;;;5080286;28;19979;-62
2024/03/26 05:40:24;;;;;;;;;;;0.60;99.90;;;;;;5082669;28;19935;-63
2024/03/26 05:42:50;;;;;;;;;;;0.70;99.90;;;;;;5080428;28;20023;-63
2024/03/26 05:45:16;;;;;;;;;;;0.70;99.90;;;;;;5079721;28;19924;-63
2024/03/26 05:47:42;;;;;;;;;;;0.80;99.90;;;;;;5079518;28;20319;-62
2024/03/26 05:50:08;;;;;;;;;;;0.80;99.90;;;;;;5064921;28;19970;-62
2024/03/26 05:52:34;;;;;;;;;;;0.80;99.90;;;;;;5078642;28;19924;-63
2024/03/26 05:54:59;;;;;;;;;;;0.90;99.90;;;;;;5060780;28;19928;-63
2024/03/26 05:57:26;;;;;;;;;;;0.90;99.90;;;;;;5080567;28;19935;-62
2024/03/26 05:59:52;;;;;;;;;;;0.90;99.90;;;;;;5077327;28;20457;-63
2024/03/26 06:02:17;;;;;;;;;;;1.00;99.90;;;;;;5080552;28;19962;-62
2024/03/26 06:04:45;;;;;;;;;;;1.00;99.90;;;;;;5080367;28;19925;-62
2024/03/26 06:07:11;;;;;;;;;;;1.10;99.90;;;;;;5079587;28;19924;-62
2024/03/26 06:09:56;;;;;;;;;;;1.10;99.90;;;;;;5081351;28;19924;-62
2024/03/26 06:12:22;;;;;;;;;;;1.10;99.90;;;;;;5079014;28;19935;-62
2024/03/26 06:14:48;;;;;;;;;;;1.20;99.90;;;;;;5070740;28;19924;-62
2024/03/26 06:17:14;;;;;;;;;;;1.20;99.90;;;;;;5079511;28;20299;-62
2024/03/26 06:19:40;;;;;;;;;;;1.30;99.90;;;;;;5080849;28;19924;-62
2024/03/26 06:22:06;;;;;;;;;;;1.40;99.90;;;;;;5070375;28;19932;-62
2024/03/26 06:24:32;;;;;;;;;;;1.40;99.90;;;;;;5076873;28;19931;-62
2024/03/26 06:26:57;;;;;;;;;;;1.50;99.90;;;;;;5085189;28;19928;-62
2024/03/26 06:29:23;;;;;;;;;;;1.50;99.90;;;;;;5081806;28;19929;-62
2024/03/26 06:31:49;;;;;;;;;;;1.60;99.90;;;;;;5081677;28;19935;-63
2024/03/26 06:34:15;;;;;;;;;;;1.70;99.90;;;;;;5079942;28;20430;-63
2024/03/26 06:36:41;;;;;;;;;;;1.80;99.90;;;;;;5064416;28;19928;-63
2024/03/26 06:39:07;;;;;;;;;;;1.90;99.90;;;;;;5067657;28;19947;-63
2024/03/26 06:41:33;;;;;;;;;;;1.90;99.90;;;;;;5076136;28;20269;-63
2024/03/26 06:43:59;;;;;;;;;;;2.00;99.90;;;;;;5081032;28;19931;-63
2024/03/26 06:46:24;;;;;;;;;;;2.00;99.90;;;;;;5069729;28;19924;-62
2024/03/26 06:48:50;;;;;;;;;;;2.10;99.90;;;;;;5059341;28;20463;-62
2024/03/26 06:51:16;;;;;;;;;;;2.30;99.90;;;;;;5061845;28;19924;-63
2024/03/26 06:53:42;;;;;;;;;;;2.40;99.90;;;;;;5075898;28;20414;-63
2024/03/26 06:56:08;;;;;;;;;;;2.50;99.90;;;;;;5079097;28;19924;-63
2024/03/26 06:58:38;;;;;;;;;;;2.50;99.90;;;;;;5079931;28;19935;-62
2024/03/26 07:01:04;;;;;;;;;;;2.50;99.90;;;;;;5062931;28;19933;-62
2024/03/26 07:03:30;;;;;;;;;;;2.60;99.90;;;;;;5063899;28;19929;-62
2024/03/26 07:05:56;;;;;;;;;;;2.60;99.90;;;;;;5060913;28;19925;-63
2024/03/26 07:08:23;;;;;;;;;;;2.60;99.90;;;;;;5079264;28;19973;-63
2024/03/26 07:10:48;;;;;;;;;;;2.70;99.90;;;;;;5074337;28;19928;-62
2024/03/26 07:13:14;;;;;;;;;;;2.70;99.90;;;;;;5058221;28;19936;-63
2024/03/26 07:15:40;;;;;;;;;;;2.80;99.90;;;;;;5077074;28;19924;-63
2024/03/26 07:18:06;;;;;;;;;;;2.90;99.90;;;;;;5058217;28;20296;-63
2024/03/26 07:20:32;;;;;;;;;;;3.00;99.90;;;;;;5078732;28;19935;-63
2024/03/26 07:22:58;;;;;;;;;;;3.10;99.90;;;;;;5062546;28;19928;-63
2024/03/26 07:25:24;;;;;;;;;;;3.20;99.90;;;;;;5082128;28;19967;-63
2024/03/26 07:27:50;;;;;;;;;;;3.30;99.90;;;;;;5080619;28;19982;-63
2024/03/26 07:30:16;;;;;;;;;;;3.30;99.90;;;;;;5083022;28;19932;-63
2024/03/26 07:32:42;;;;;;;;;;;3.40;99.90;;;;;;5064420;28;19924;-63
2024/03/26 07:35:08;;;;;;;;;;;3.50;99.90;;;;;;5065253;28;19985;-63
2024/03/26 07:37:34;;;;;;;;;;;3.60;99.90;;;;;;5082333;28;20308;-63
2024/03/26 07:40:00;;;;;;;;;;;3.60;99.90;;;;;;5067339;28;20014;-63
2024/03/26 07:42:26;;;;;;;;;;;3.60;99.90;;;;;;5078512;28;19931;-63
2024/03/26 07:44:52;;;;;;;;;;;3.70;99.90;;;;;;5084770;28;19932;-63
2024/03/26 07:47:17;;;;;;;;;;;3.70;99.90;;;;;;5085694;28;20010;-63
2024/03/26 07:49:44;;;;;;;;;;;3.80;99.90;;;;;;5082189;28;19923;-63
2024/03/26 07:52:10;;;;;;;;;;;3.90;99.90;;;;;;5083426;28;19966;-63
2024/03/26 07:54:36;;;;;;;;;;;4.00;99.90;;;;;;5078553;28;19932;-63
2024/03/26 07:57:02;;;;;;;;;;;4.10;99.90;;;;;;5069221;28;19928;-63
2024/03/26 07:59:28;;;;;;;;;;;4.10;99.90;;;;;;5066601;28;19931;-63
2024/03/26 08:01:54;;;;;;;;;;;4.20;99.90;;;;;;5078226;28;19951;-64
2024/03/26 08:04:20;;;;;;;;;;;4.30;99.90;;;;;;5072369;28;19935;-63
2024/03/26 08:06:47;;;;;;;;;;;4.40;99.90;;;;;;5081739;28;19925;-63
2024/03/26 08:09:13;;;;;;;;;;;4.50;99.90;;;;;;5078332;28;19995;-63
2024/03/26 08:11:39;;;;;;;;;;;4.60;99.90;;;;;;5075865;28;20328;-63
2024/03/26 08:14:05;;;;;;;;;;;4.60;99.90;;;;;;5077458;28;19929;-63
2024/03/26 08:16:31;;;;;;;;;;;4.70;99.90;;;;;;5076138;28;20436;-63
2024/03/26 08:18:57;;;;;;;;;;;4.70;99.90;;;;;;5073969;28;19925;-63
2024/03/26 08:21:23;;;;;;;;;;;4.80;99.90;;;;;;5074336;28;19983;-63
2024/03/26 08:23:49;;;;;;;;;;;4.90;99.90;;;;;;5075472;28;20316;-63
2024/03/26 08:26:15;;;;;;;;;;;5.00;99.90;;;;;;5072056;28;20407;-63
2024/03/26 08:28:41;;;;;;;;;;;5.10;99.90;;;;;;5074651;28;19925;-63
2024/03/26 08:31:07;;;;;;;;;;;5.20;99.90;;;;;;5078002;28;19932;-63
2024/03/26 08:33:34;;;;;;;;;;;5.30;99.90;;;;;;5074792;28;19956;-63
2024/03/26 08:36:04;;;;;;;;;;;5.40;99.90;;;;;;5082127;28;19931;-63
2024/03/26 08:38:30;;;;;;;;;;;5.50;99.90;;;;;;5081286;28;19959;-63
2024/03/26 08:40:56;;;;;;;;;;;5.60;99.90;;;;;;5068578;28;19928;-64
2024/03/26 08:43:22;;;;;;;;;;;5.80;99.90;;;;;;5078741;28;19935;-63
2024/03/26 08:45:48;;;;;;;;;;;5.90;99.90;;;;;;5077521;28;19998;-63
2024/03/26 08:48:14;;;;;;;;;;;5.90;99.90;;;;;;5062130;28;20346;-63
2024/03/26 08:50:40;;;;;;;;;;;6.00;99.90;;;;;;5077405;28;20452;-63
2024/03/26 08:53:06;;;;;;;;;;;6.10;99.90;;;;;;5076218;28;19929;-63
2024/03/26 08:55:32;;;;;;;;;;;6.20;99.90;;;;;;5076814;28;19974;-63
2024/03/26 08:57:58;;;;;;;;;;;6.30;99.90;;;;;;5079398;28;20395;-63
2024/03/26 09:00:24;;;;;;;;;;;6.30;99.90;;;;;;5077405;28;19925;-63
2024/03/26 09:02:50;;;;;;;;;;;6.40;99.90;;;;;;5077301;28;19924;-63
2024/03/26 09:05:16;;;;;;;;;;;6.50;99.90;;;;;;5077556;28;19925;-63
2024/03/26 09:07:42;;;;;;;;;;;6.60;99.90;;;;;;5080908;28;19928;-63
2024/03/26 09:10:08;;;;;;;;;;;6.70;99.90;;;;;;5082260;28;19925;-63
2024/03/26 09:12:34;;;;;;;;;;;6.80;99.90;;;;;;5078406;28;20384;-64
2024/03/26 09:15:00;;;;;;;;;;;6.90;99.90;;;;;;5081083;28;19931;-63
2024/03/26 09:17:26;;;;;;;;;;;7.00;99.90;;;;;;5067195;28;19931;-63
2024/03/26 09:19:51;;;;;;;;;;;7.10;99.90;;;;;;5075722;28;20347;-63
2024/03/26 09:22:17;;;;;;;;;;;7.30;99.90;;;;;;5079070;28;20320;-63
2024/03/26 09:24:43;;;;;;;;;;;7.40;99.90;;;;;;5078034;28;19990;-63
2024/03/26 09:27:10;;;;;;;;;;;7.50;99.90;;;;;;5069725;28;20395;-63
2024/03/26 09:29:35;;;;;;;;;;;7.60;99.90;;;;;;5077482;28;19924;-63
2024/03/26 09:32:02;;;;;;;;;;;7.70;99.90;;;;;;5078456;28;20532;-63
2024/03/26 09:34:27;;;;;;;;;;;7.90;99.90;;;;;;5063759;28;20396;-63
2024/03/26 09:36:56;;;;;;;;;;;8.10;99.90;;;;;;5079545;28;19936;-63
2024/03/26 09:39:22;;;;;;;;;;;8.30;99.90;;;;;;5078090;28;19933;-63
2024/03/26 09:41:48;;;;;;;;;;;8.50;99.90;;;;;;5081970;28;19928;-63
2024/03/26 09:44:14;;;;;;;;;;;8.60;99.90;;;;;;5066553;28;19999;-63
2024/03/26 09:46:40;;;;;;;;;;;8.80;99.90;;;;;;5080843;28;19924;-63
2024/03/26 09:49:08;;;;;;;;;;;8.90;99.90;;;;;;5081593;28;19928;-63
2024/03/26 09:51:36;;;;;;;;;;;8.90;99.90;;;;;;5079914;28;19932;-63
2024/03/26 09:54:03;;;;;;;;;;;9.10;99.90;;;;;;5079766;28;19928;-63
2024/03/26 09:56:29;;;;;;;;;;;9.20;99.90;;;;;;5079925;28;19925;-63
2024/03/26 09:58:55;;;;;;;;;;;9.30;99.90;;;;;;5061121;28;19955;-63
2024/03/26 10:01:24;;;;;;;;;;;9.40;99.90;;;;;;5077135;28;19947;-63
2024/03/26 10:03:51;;;;;;;;;;;9.50;99.90;;;;;;5081704;28;19925;-63
2024/03/26 10:06:17;;;;;;;;;;;9.60;99.90;;;;;;5076469;28;19928;-63
2024/03/26 10:08:43;;;;;;;;;;;9.70;99.90;;;;;;5070434;28;19924;-62
2024/03/26 10:11:09;;;;;;;;;;;9.70;99.90;;;;;;5064627;28;20019;-63
2024/03/26 10:13:35;;;;;;;;;;;9.60;99.90;;;;;;5058249;28;20458;-62
2024/03/26 10:16:02;;;;;;;;;;;9.70;99.90;;;;;;5061624;28;19977;-63
2024/03/26 10:18:28;;;;;;;;;;;9.80;99.90;;;;;;5076021;28;19933;-64
2024/03/26 10:20:53;;;;;;;;;;;9.90;99.90;;;;;;5080167;28;19980;-63
2024/03/26 10:23:19;;;;;;;;;;;9.90;99.90;;;;;;5075646;28;19925;-63
2024/03/26 10:25:47;;;;;;;;;;;10.00;99.90;;;;;;5081576;28;19951;-63
2024/03/26 10:28:13;;;;;;;;;;;10.00;99.90;;;;;;5063959;28;19981;-63
2024/03/26 10:30:39;;;;;;;;;;;10.10;99.90;;;;;;5076338;28;19924;-63
2024/03/26 10:33:05;;;;;;;;;;;10.20;99.90;;;;;;5076860;28;20353;-63
2024/03/26 10:35:32;;;;;;;;;;;10.40;99.90;;;;;;5078749;28;20022;-63
2024/03/26 10:38:00;;;;;;;;;;;10.50;99.90;;;;;;5078870;28;19924;-63
2024/03/26 10:40:36;;;;;;;;;;;10.70;99.90;;;;;;5072623;28;19928;-63
2024/03/26 10:43:02;;;;;;;;;;;10.90;99.90;;;;;;5079727;28;20341;-63
2024/03/26 10:45:28;;;;;;;;;;;11.00;99.90;;;;;;5073695;28;19929;-63
2024/03/26 10:47:55;;;;;;;;;;;11.10;99.90;;;;;;5075279;28;20517;-63
2024/03/26 10:50:22;;;;;;;;;;;11.10;99.90;;;;;;5079816;28;19970;-63
2024/03/26 10:52:48;;;;;;;;;;;11.20;99.90;;;;;;5063935;28;19928;-63
2024/03/26 10:55:14;;;;;;;;;;;11.20;99.90;;;;;;5075741;28;19935;-63
2024/03/26 10:57:44;;;;;;;;;;;11.30;99.90;;;;;;5075540;28;20405;-63
2024/03/26 11:00:12;;;;;;;;;;;11.40;99.90;;;;;;5074299;28;19924;-63
2024/03/26 11:02:39;;;;;;;;;;;11.60;99.90;;;;;;5076887;28;19924;-63
2024/03/26 11:05:05;;;;;;;;;;;11.70;99.90;;;;;;5079237;28;19985;-63
2024/03/26 11:07:37;;;;;;;;;;;11.90;99.90;;;;;;5080921;28;19924;-63
2024/03/26 11:10:10;;;;;;;;;;;12.00;99.90;;;;;;5074921;28;19932;-63
2024/03/26 11:12:36;;;;;;;;;;;12.10;99.90;;;;;;5077753;28;19932;-63
2024/03/26 11:15:11;;;;;;;;;;;12.20;99.90;;;;;;5077433;28;20413;-63
2024/03/26 11:17:51;;;;;;;;;;;12.30;99.90;;;;;;5076287;28;20392;-63
2024/03/26 11:20:18;;;;;;;;;;;12.30;99.90;;;;;;5076047;28;20027;-63
2024/03/26 11:22:43;;;;;;;;;;;12.40;99.90;;;;;;5078007;28;19928;-64
2024/03/26 11:25:09;;;;;;;;;;;12.40;99.90;;;;;;5077297;28;20410;-63
2024/03/26 11:27:35;;;;;;;;;;;12.40;99.90;;;;;;5075679;28;19929;-63
2024/03/26 11:30:02;;;;;;;;;;;12.40;99.90;;;;;;5065574;28;19924;-63
2024/03/26 11:32:33;;;;;;;;;;;12.40;99.90;;;;;;5075584;28;19971;-63
2024/03/26 11:35:17;;;;;;;;;;;12.40;99.90;;;;;;5056392;28;20313;-63
2024/03/26 11:37:45;;;;;;;;;;;12.40;99.90;;;;;;5081009;28;19932;-63
2024/03/26 11:40:11;;;;;;;;;;;12.40;99.90;;;;;;5072346;28;19929;-63
2024/03/26 11:42:37;;;;;;;;;;;12.40;99.90;;;;;;5061628;28;19990;-63
2024/03/26 11:45:07;;;;;;;;;;;12.50;99.90;;;;;;5061646;28;20440;-63
2024/03/26 11:47:33;;;;;;;;;;;12.60;99.90;;;;;;5081338;28;19976;-63
2024/03/26 11:49:59;;;;;;;;;;;12.70;99.90;;;;;;5076274;28;19925;-63
2024/03/26 11:52:25;;;;;;;;;;;12.80;99.90;;;;;;5078257;28;19943;-63
2024/03/26 11:54:52;;;;;;;;;;;13.00;99.90;;;;;;5077971;28;19924;-63
2024/03/26 11:57:17;;;;;;;;;;;13.10;99.90;;;;;;5077303;28;20412;-63
2024/03/26 11:59:44;;;;;;;;;;;13.20;99.90;;;;;;5075778;28;19928;-63
2024/03/26 12:02:10;;;;;;;;;;;13.40;99.90;;;;;;5076869;28;19932;-63
2024/03/26 12:04:36;;;;;;;;;;;13.60;99.90;;;;;;5078626;28;19954;-62
2024/03/26 12:07:05;;;;;;;;;;;13.70;99.90;;;;;;5082872;28;20443;-63
2024/03/26 12:09:34;;;;;;;;;;;13.80;99.90;;;;;;5081893;28;19993;-63
2024/03/26 12:12:00;;;;;;;;;;;13.90;99.90;;;;;;5085426;28;19932;-63
2024/03/26 12:14:26;;;;;;;;;;;14.00;99.90;;;;;;5083249;28;19928;-63
2024/03/26 12:16:53;;;;;;;;;;;14.10;99.90;;;;;;5082524;28;20411;-63
2024/03/26 12:19:19;;;;;;;;;;;14.20;99.90;;;;;;5065538;28;19928;-63
2024/03/26 12:21:45;;;;;;;;;;;14.20;99.90;;;;;;5086160;28;20011;-63
2024/03/26 12:24:12;;;;;;;;;;;14.40;99.90;;;;;;5087308;28;19928;-63
2024/03/26 12:26:38;;;;;;;;;;;14.40;99.90;;;;;;5080078;28;19924;-63
2024/03/26 12:29:04;;;;;;;;;;;14.60;99.90;;;;;;5085095;28;19934;-63
2024/03/26 12:31:30;;;;;;;;;;;14.60;99.90;;;;;;5083661;28;19932;-63
2024/03/26 12:34:08;;;;;;;;;;;14.60;99.90;;;;;;5082331;28;19932;-63
2024/03/26 12:36:35;;;;;;;;;;;14.60;99.90;;;;;;5073273;28;19954;-63
2024/03/26 12:39:02;;;;;;;;;;;14.70;99.90;;;;;;5063656;28;19962;-69
2024/03/26 12:41:28;;;;;;;;;;;14.90;99.90;;;;;;5082064;28;19928;-63
2024/03/26 12:43:54;;;;;;;;;;;15.10;99.90;;;;;;5079902;28;19924;-63
2024/03/26 12:46:20;;;;;;;;;;;15.20;99.90;;;;;;5077427;28;19928;-63
2024/03/26 12:48:46;;;;;;;;;;;15.30;99.90;;;;;;5081498;28;19928;-63
2024/03/26 12:51:12;;;;;;;;;;;15.40;99.90;;;;;;5076905;28;20146;-63
2024/03/26 12:53:37;;;;;;;;;;;15.30;99.90;;;;;;5071922;28;20019;-63
2024/03/26 12:56:03;;;;;;;;;;;15.30;99.90;;;;;;5082864;28;19935;-63
2024/03/26 12:58:29;;;;;;;;;;;15.20;99.90;;;;;;5080951;28;19929;-63
2024/03/26 13:00:55;;;;;;;;;;;15.10;99.90;;;;;;5071752;28;19924;-63
2024/03/26 13:03:21;;;;;;;;;;;15.20;99.90;;;;;;5084588;28;19924;-63
2024/03/26 13:05:47;;;;;;;;;;;15.20;99.90;;;;;;5081229;28;19936;-64
2024/03/26 13:08:12;;;;;;;;;;;15.30;99.90;;;;;;5085865;28;20426;-63
2024/03/26 13:10:38;;;;;;;;;;;15.50;99.90;;;;;;5072318;28;19931;-63
2024/03/26 13:13:04;;;;;;;;;;;15.60;99.90;;;;;;5071066;28;20314;-63
2024/03/26 13:15:30;;;;;;;;;;;15.70;99.90;;;;;;5082055;28;19942;-63
2024/03/26 13:17:56;;;;;;;;;;;15.90;99.90;;;;;;5069295;28;19987;-63
2024/03/26 13:20:22;;;;;;;;;;;16.00;99.90;;;;;;5070703;28;19946;-63
2024/03/26 13:22:48;;;;;;;;;;;16.10;99.90;;;;;;5065353;28;19931;-63
2024/03/26 13:25:17;;;;;;;;;;;16.20;99.90;;;;;;5083178;28;19925;-63
2024/03/26 13:27:43;;;;;;;;;;;16.30;99.90;;;;;;5081387;28;19974;-63
2024/03/26 13:30:10;;;;;;;;;;;16.40;99.90;;;;;;5075849;28;19990;-63
2024/03/26 13:32:36;;;;;;;;;;;16.50;99.90;;;;;;5075781;28;19977;-63
2024/03/26 13:35:02;;;;;;;;;;;16.50;99.90;;;;;;5081103;28;19928;-63
2024/03/26 13:37:28;;;;;;;;;;;16.60;99.90;;;;;;5068847;28;19924;-63
2024/03/26 13:39:54;;;;;;;;;;;16.60;99.90;;;;;;5078262;28;19924;-63
2024/03/26 13:42:20;;;;;;;;;;;16.60;99.90;;;;;;5080463;28;19924;-63
2024/03/26 13:44:46;;;;;;;;;;;16.60;99.90;;;;;;5075450;28;20408;-63
2024/03/26 13:47:12;;;;;;;;;;;16.70;99.90;;;;;;5075972;28;20136;-63
2024/03/26 13:49:38;;;;;;;;;;;16.70;99.70;;;;;;5078721;28;19928;-63
2024/03/26 13:52:04;;;;;;;;;;;16.80;99.90;;;;;;5076523;28;20286;-63
2024/03/26 13:54:30;;;;;;;;;;;16.80;99.90;;;;;;5077815;28;19955;-63
2024/03/26 13:56:55;;;;;;;;;;;16.90;99.90;;;;;;5080974;28;19924;-63
2024/03/26 13:59:21;;;;;;;;;;;16.90;99.70;;;;;;5069444;28;19928;-63
2024/03/26 14:01:47;;;;;;;;;;;17.00;99.90;;;;;;5078735;28;19928;-63
2024/03/26 14:04:13;;;;;;;;;;;17.00;99.30;;;;;;5060891;28;20300;-63
2024/03/26 14:06:39;;;;;;;;;;;17.10;99.30;;;;;;5063833;28;19978;-63
2024/03/26 14:09:05;;;;;;;;;;;17.10;98.20;;;;;;5075851;28;19981;-63
2024/03/26 14:11:31;;;;;;;;;;;17.20;99.10;;;;;;5079913;28;19931;-63
2024/03/26 14:13:58;;;;;;;;;;;17.30;99.70;;;;;;5077178;28;19940;-63
2024/03/26 14:16:25;;;;;;;;;;;17.30;99.30;;;;;;5075343;28;19924;-64
2024/03/26 14:18:50;;;;;;;;;;;17.30;99.10;;;;;;5081421;28;19994;-63
2024/03/26 14:21:16;;;;;;;;;;;17.20;99.40;;;;;;5080678;28;20447;-63